createdAt,value
2022-12-07T00:02:43.558Z,100818.91
2022-12-07T00:07:52.177Z,100802.56
2022-12-07T00:12:57.252Z,100801.31
2022-12-07T00:18:00.085Z,100806.47
2022-12-07T00:23:03.479Z,100798.94
2022-12-07T00:28:10.383Z,100796.84
2022-12-07T00:33:14.608Z,100787.81
2022-12-07T00:38:17.489Z,100780.28
2022-12-07T00:43:21.686Z,100782.06
2022-12-07T00:48:25.030Z,100783.31
2022-12-07T00:53:28.562Z,100773.63
2022-12-07T00:58:32.718Z,100769.88
2022-12-07T01:03:36.133Z,100755.59
2022-12-07T01:08:38.989Z,100757.59
2022-12-07T01:13:43.211Z,100753.19
2022-12-07T01:18:49.530Z,100749.63
2022-12-07T01:23:52.720Z,100753.94
2022-12-07T01:28:59.534Z,100744.94
2022-12-07T01:34:02.571Z,100749.31
2022-12-07T01:39:07.181Z,100747.97
2022-12-07T01:44:21.302Z,100749.00
2022-12-07T01:49:30.141Z,100745.84
2022-12-07T01:54:34.764Z,100739.97
2022-12-07T01:59:39.830Z,100756.81
2022-12-07T02:04:42.631Z,100747.78
2022-12-07T02:09:45.429Z,100751.84
2022-12-07T02:14:50.094Z,100741.28
2022-12-07T02:20:18.451Z,100746.97
2022-12-07T02:25:32.607Z,100743.97
2022-12-07T02:30:40.380Z,100745.28
2022-12-07T02:35:47.777Z,100747.19
2022-12-07T02:40:55.245Z,100743.72
2022-12-07T02:46:06.077Z,100743.09
2022-12-07T02:51:09.017Z,100745.53
2022-12-07T02:56:18.627Z,100739.34
2022-12-07T03:01:32.821Z,100751.63
2022-12-07T03:06:44.460Z,100750.00
2022-12-07T03:11:50.658Z,100743.03
2022-12-07T03:17:03.077Z,100739.41
2022-12-07T03:22:10.992Z,100737.28
2022-12-07T03:27:18.939Z,100733.22
2022-12-07T03:32:28.909Z,100733.13
2022-12-07T03:37:36.518Z,100730.50
2022-12-07T03:42:39.746Z,100734.59
2022-12-07T03:47:49.321Z,100741.31
2022-12-07T03:52:57.313Z,100733.91
2022-12-07T03:58:04.523Z,100746.78
2022-12-07T04:03:08.691Z,100745.72
2022-12-07T04:08:11.520Z,100757.41
2022-12-07T04:13:14.353Z,100759.00
2022-12-07T04:18:18.483Z,100746.13
2022-12-07T04:23:21.288Z,100746.56
2022-12-07T04:28:24.132Z,100754.63
2022-12-07T04:33:28.267Z,100752.88
2022-12-07T04:38:31.030Z,100763.66
2022-12-07T04:43:33.796Z,100756.06
2022-12-07T04:48:38.070Z,100759.97
2022-12-07T04:53:40.862Z,100758.59
2022-12-07T04:58:43.807Z,100748.59
2022-12-07T05:03:48.111Z,100749.28
2022-12-07T05:08:50.870Z,100744.78
2022-12-07T05:13:53.668Z,100746.72
2022-12-07T05:18:58.042Z,100742.66
2022-12-07T05:24:00.839Z,100747.88
2022-12-07T05:29:04.008Z,100735.56
2022-12-07T05:34:08.241Z,100734.84
2022-12-07T05:39:11.016Z,100744.81
2022-12-07T05:44:13.807Z,100748.72
2022-12-07T05:49:18.270Z,100745.78
2022-12-07T05:54:21.170Z,100740.41
2022-12-07T05:59:24.410Z,100741.13
2022-12-07T06:04:30.635Z,100738.72
2022-12-07T06:09:34.454Z,100744.91
2022-12-07T06:14:37.709Z,100735.31
2022-12-07T06:19:42.671Z,100745.88
2022-12-07T06:24:45.914Z,100736.19
2022-12-07T06:29:49.783Z,100734.28
2022-12-07T06:34:53.957Z,100739.19
2022-12-07T06:39:57.106Z,100727.31
2022-12-07T06:44:59.861Z,100733.78
2022-12-07T06:50:05.074Z,100730.38
2022-12-07T06:55:08.902Z,100725.47
2022-12-07T07:00:17.015Z,100733.63
2022-12-07T07:05:25.629Z,100734.41
2022-12-07T07:10:28.584Z,100739.16
2022-12-07T07:15:31.628Z,100740.41
2022-12-07T07:20:36.992Z,100731.25
2022-12-07T07:25:39.911Z,100740.56
2022-12-07T07:30:42.659Z,100739.75
2022-12-07T07:35:46.794Z,100731.25
2022-12-07T07:40:49.559Z,100739.81
2022-12-07T07:45:52.398Z,100745.03
2022-12-07T07:50:56.529Z,100747.72
2022-12-07T07:55:59.292Z,100756.72
2022-12-07T08:01:06.460Z,100748.09
2022-12-07T08:06:10.737Z,100751.75
2022-12-07T08:11:13.856Z,100757.34
2022-12-07T08:16:17.098Z,100751.38
2022-12-07T08:21:21.227Z,100753.56
2022-12-07T08:26:23.948Z,100744.53
2022-12-07T08:31:28.766Z,100746.72
2022-12-07T08:36:33.031Z,100750.38
2022-12-07T08:41:36.093Z,100753.13
2022-12-07T08:46:42.955Z,100746.53
2022-12-07T08:51:47.581Z,100745.19
2022-12-07T08:56:58.422Z,100753.19
2022-12-07T09:02:18.157Z,100755.19
2022-12-07T09:07:23.802Z,100757.88
2022-12-07T09:12:29.984Z,100756.63
2022-12-07T09:17:37.073Z,100759.78
2022-12-07T09:22:41.230Z,100763.53
2022-12-07T09:27:44.232Z,100748.78
2022-12-07T09:32:47.050Z,100752.41
2022-12-07T09:37:51.731Z,100746.53
2022-12-07T09:42:57.028Z,100735.63
2022-12-07T09:48:01.087Z,100741.63
2022-12-07T09:53:12.576Z,100747.88
2022-12-07T09:58:21.860Z,100740.72
2022-12-07T10:03:24.883Z,100733.81
2022-12-07T10:08:29.255Z,100745.63
2022-12-07T10:13:38.193Z,100745.75
2022-12-07T10:18:42.765Z,100743.06
2022-12-07T10:24:02.951Z,100746.28
2022-12-07T10:29:16.951Z,100736.03
2022-12-07T10:34:25.560Z,100734.84
2022-12-07T10:39:29.676Z,100732.34
2022-12-07T10:44:33.968Z,100723.63
2022-12-07T10:50:19.891Z,100735.06
2022-12-07T10:55:35.166Z,100732.06
2022-12-07T11:00:43.859Z,100718.38
2022-12-07T11:05:55.296Z,100717.66
2022-12-07T11:11:08.012Z,100713.59
2022-12-07T11:16:22.747Z,100723.53
2022-12-07T11:21:32.203Z,100715.25
2022-12-07T11:26:51.445Z,100707.50
2022-12-07T11:32:07.643Z,100711.94
2022-12-07T11:37:15.649Z,100702.63
2022-12-07T11:42:24.923Z,100691.84
2022-12-07T11:47:37.117Z,100694.16
2022-12-07T11:52:47.168Z,100690.25
2022-12-07T11:57:59.122Z,100697.38
2022-12-07T12:03:06.375Z,100680.78
2022-12-07T12:19:36.537Z,100681.28
2022-12-07T12:24:41.746Z,100686.38
2022-12-07T12:29:46.087Z,100685.50
2022-12-07T12:35:05.180Z,100685.50
2022-12-07T12:40:44.342Z,100678.78
2022-12-07T12:46:31.213Z,100676.56
2022-12-07T12:51:41.543Z,100676.47
2022-12-07T12:56:51.589Z,100673.69
2022-12-07T13:02:09.712Z,100670.34
2022-12-07T13:07:53.525Z,100670.63
2022-12-07T13:13:00.819Z,100664.81
2022-12-07T13:18:24.066Z,100671.47
2022-12-07T13:23:31.414Z,100664.94
2022-12-07T13:28:41.934Z,100677.28
2022-12-07T13:33:47.305Z,100668.31
2022-12-07T13:38:53.375Z,100677.13
2022-12-07T13:44:04.099Z,100683.66
2022-12-07T13:49:19.825Z,100681.22
2022-12-07T13:54:23.822Z,100679.66
2022-12-07T13:59:28.478Z,100677.09
2022-12-07T14:04:38.414Z,100680.19
2022-12-07T14:09:41.284Z,100682.19
2022-12-07T14:14:49.921Z,100675.06
2022-12-07T14:19:57.772Z,100674.06
2022-12-07T14:25:16.660Z,100671.91
2022-12-07T14:30:20.035Z,100674.47
2022-12-07T14:35:24.189Z,100678.59
2022-12-07T14:40:28.606Z,100686.94
2022-12-07T14:45:32.427Z,100677.38
2022-12-07T14:56:07.250Z,100689.00
2022-12-07T15:01:10.078Z,100682.38
2022-12-07T15:06:17.666Z,100678.00
2022-12-07T15:11:21.097Z,100682.84
2022-12-07T15:16:24.051Z,100685.41
2022-12-07T15:21:28.374Z,100691.72
2022-12-07T15:26:33.009Z,100686.44
2022-12-07T15:31:55.023Z,100685.84
2022-12-07T15:37:00.376Z,100687.47
2022-12-07T15:42:03.227Z,100688.38
2022-12-07T15:47:06.490Z,100690.63
2022-12-07T15:52:10.768Z,100675.75
2022-12-07T15:57:13.535Z,100673.03
2022-12-07T16:02:16.482Z,100673.91
2022-12-07T16:07:21.073Z,100671.84
2022-12-07T16:12:23.825Z,100664.94
2022-12-07T16:17:26.542Z,100668.06
2022-12-07T16:22:30.771Z,100663.13
2022-12-07T16:27:33.567Z,100662.03
2022-12-07T16:32:36.362Z,100664.44
2022-12-07T16:37:40.693Z,100663.66
2022-12-07T16:42:43.495Z,100672.06
2022-12-07T16:47:46.561Z,100670.69
2022-12-07T16:52:50.709Z,100668.19
2022-12-07T16:57:53.457Z,100663.09
2022-12-07T17:02:56.260Z,100659.34
2022-12-07T17:08:00.703Z,100659.22
2022-12-07T17:13:03.736Z,100658.88
2022-12-07T17:18:06.589Z,100649.84
2022-12-07T17:23:10.724Z,100646.22
2022-12-07T17:28:14.000Z,100649.41
2022-12-07T17:33:17.103Z,100648.28
2022-12-07T17:38:21.248Z,100649.03
2022-12-07T17:43:24.054Z,100638.56
2022-12-07T17:48:27.137Z,100637.25
2022-12-07T17:53:31.332Z,100632.84
2022-12-07T17:58:34.244Z,100625.63
2022-12-07T18:03:37.349Z,100621.28
2022-12-07T18:08:41.583Z,100614.06
2022-12-07T18:13:44.546Z,100612.41
2022-12-07T18:18:52.576Z,100616.00
2022-12-07T18:23:58.331Z,100605.34
2022-12-07T18:29:01.800Z,100595.75
2022-12-07T18:34:08.723Z,100605.34
2022-12-07T18:39:13.027Z,100603.53
2022-12-07T18:44:17.210Z,100598.75
2022-12-07T18:49:20.113Z,100601.88
2022-12-07T18:54:24.708Z,100595.75
2022-12-07T18:59:44.955Z,100589.28
2022-12-07T19:04:50.923Z,100582.50
2022-12-07T19:10:08.302Z,100579.22
2022-12-07T19:15:30.747Z,100577.03
2022-12-07T19:20:33.926Z,100575.09
2022-12-07T19:25:42.081Z,100568.03
2022-12-07T19:30:57.880Z,100570.25
2022-12-07T19:37:13.268Z,100570.81
2022-12-07T19:42:25.244Z,100570.13
2022-12-07T19:47:40.459Z,100557.38
2022-12-07T19:52:43.623Z,100560.69
2022-12-07T19:57:50.950Z,100554.09
2022-12-07T20:02:56.404Z,100556.44
2022-12-07T20:08:11.668Z,100548.91
2022-12-07T20:13:31.561Z,100550.97
2022-12-07T20:18:35.276Z,100534.69
2022-12-07T20:23:41.759Z,100525.00
2022-12-07T20:29:49.458Z,100523.75
2022-12-07T20:36:18.931Z,100518.69
2022-12-07T20:42:47.045Z,100508.69
2022-12-07T20:48:14.007Z,100504.75
2022-12-07T20:59:39.837Z,100499.72
2022-12-07T21:13:19.479Z,100483.94
2022-12-07T21:26:02.866Z,100477.47
2022-12-07T21:31:24.801Z,100471.88
2022-12-07T21:36:27.868Z,100460.81
2022-12-07T21:41:32.870Z,100456.75
2022-12-07T21:46:38.368Z,100455.72
2022-12-07T21:51:42.395Z,100451.81
2022-12-07T21:56:52.708Z,100444.03
2022-12-07T22:02:25.080Z,100440.69
2022-12-07T22:07:28.914Z,100425.88
2022-12-07T22:12:32.854Z,100417.59
2022-12-07T22:17:37.456Z,100422.53
2022-12-07T22:22:40.811Z,100413.69
2022-12-07T22:27:44.614Z,100406.34
2022-12-07T22:32:49.516Z,100399.28
2022-12-07T22:37:52.689Z,100384.41
2022-12-07T22:42:55.482Z,100381.28
2022-12-07T22:47:59.661Z,100384.13
2022-12-07T22:53:02.593Z,100367.03
2022-12-07T22:58:05.384Z,100362.22
2022-12-07T23:03:09.685Z,100360.75
2022-12-07T23:08:13.314Z,100338.94
2022-12-07T23:13:35.531Z,100334.31
2022-12-07T23:18:40.052Z,100325.16
2022-12-07T23:23:42.848Z,100324.81
2022-12-07T23:28:45.629Z,100310.88
2022-12-07T23:33:49.907Z,100305.03
2022-12-07T23:38:54.297Z,100297.66
2022-12-07T23:43:58.333Z,100296.91
2022-12-07T23:49:04.195Z,100281.31
2022-12-07T23:54:07.136Z,100279.56
2022-12-07T23:59:12.852Z,100272.78
